Time;durP1;ratioP1;P1;durP2;ratioP2;P2;SDS_P1;SDS_P2;PMS_P1;PMS_P2;Temp;Humidity;BMP_temperature;BMP_pressure;BME280_temperature;BME280_humidity;BME280_pressure;Samples;Min_cycle;Max_cycle;Signal;HPM_P1;HPM_P2
2024/02/08 00:00:40;;;;;;;1999.90;999.90;;;;;;;5.11;65.95;95841.72;5154681;27;20097;-64
2024/02/08 00:03:10;;;;;;;1999.90;999.90;;;;;;;5.09;65.79;95846.09;5154702;27;20086;-66
2024/02/08 00:05:37;;;;;;;;;;;;;;;5.04;66.17;95840.19;5155087;27;20574;-67
2024/02/08 00:08:06;;;;;;;1999.90;999.90;;;;;;;5.11;66.23;95839.13;5154637;27;19925;-65
2024/02/08 00:10:33;;;;;;;1999.90;999.90;;;;;;;5.12;66.29;95846.00;5154610;27;20533;-67
2024/02/08 00:13:00;;;;;;;1999.90;999.90;;;;;;;5.18;65.46;95842.44;5154702;27;20133;-63
2024/02/08 00:15:29;;;;;;;1999.90;999.90;;;;;;;5.14;65.89;95845.97;5154614;27;20047;-65
2024/02/08 00:17:56;;;;;;;1999.90;999.90;;;;;;;5.17;65.98;95848.47;5154479;27;20058;-66
2024/02/08 00:20:23;;;;;;;1999.90;999.90;;;;;;;5.17;65.39;95841.56;5154491;27;20077;-64
2024/02/08 00:22:53;;;;;;;1999.90;999.90;;;;;;;5.14;65.86;95836.47;5158725;27;20045;-65
2024/02/08 00:25:24;;;;;;;1999.90;999.90;;;;;;;5.13;66.14;95844.28;5158706;27;20092;-67
2024/02/08 00:27:52;;;;;;;1999.90;999.90;;;;;;;4.97;66.67;95836.91;5158765;27;20123;-63
2024/02/08 00:30:19;;;;;;;1999.90;999.90;;;;;;;5.04;66.71;95840.19;5158698;27;20504;-65
2024/02/08 00:32:48;;;;;;;1999.90;999.90;;;;;;;5.08;66.30;95840.97;5158509;27;20395;-67
2024/02/08 00:35:17;;;;;;;1999.90;999.90;;;;;;;5.04;66.20;95838.47;5158689;27;20077;-64
2024/02/08 00:37:47;;;;;;;1999.90;999.90;;;;;;;5.04;66.45;95840.19;5158541;27;20515;-64
2024/02/08 00:40:14;;;;;;;1999.90;999.90;;;;;;;5.05;66.46;95845.34;5158354;27;20057;-66
2024/02/08 00:42:45;;;;;;;1999.90;999.90;;;;;;;5.05;66.38;95841.88;5158597;27;20095;-66
2024/02/08 00:45:15;;;;;;;1999.90;999.90;;;;;;;4.96;67.03;95839.56;5158497;27;20058;-67
2024/02/08 00:47:42;;;;;;;1999.90;999.90;;;;;;;4.99;67.03;95844.63;5158351;27;20095;-65
2024/02/08 00:50:09;;;;;;;1999.90;999.90;;;;;;;5.05;66.98;95840.16;5158270;27;20049;-64
2024/02/08 00:52:36;;;;;;;1999.90;999.90;;;;;;;5.08;66.72;95831.44;5158208;27;20047;-65
2024/02/08 00:55:04;;;;;;;1999.90;999.90;;;;;;;5.06;66.55;95833.25;5158081;27;20446;-63
2024/02/08 00:57:32;;;;;;;1999.90;999.90;;;;;;;5.05;66.15;95829.78;5157957;27;20062;-66
2024/02/08 01:00:01;;;;;;;1999.90;999.90;;;;;;;4.92;66.17;95825.81;5158019;27;20471;-65
2024/02/08 01:02:28;;;;;;;1999.90;999.90;;;;;;;4.78;66.82;95815.81;5158072;27;20058;-65
2024/02/08 01:04:55;;;;;;;1999.90;999.90;;;;;;;4.74;67.21;95824.56;5157908;27;20047;-64
2024/02/08 01:07:22;;;;;;;1999.90;999.90;;;;;;;4.72;67.57;95813.41;5157925;27;20051;-65
2024/02/08 01:09:49;;;;;;;1999.90;999.90;;;;;;;4.67;67.65;95823.91;5157883;27;20167;-62
2024/02/08 01:12:16;;;;;;;1999.90;999.90;;;;;;;4.65;67.87;95817.88;5157728;27;20129;-66
2024/02/08 01:14:43;;;;;;;1999.90;999.90;;;;;;;4.64;67.40;95824.81;5157774;27;20046;-65
2024/02/08 01:17:11;;;;;;;1999.90;999.90;;;;;;;4.63;67.23;95828.28;5157736;27;20054;-65
2024/02/08 01:19:38;;;;;;;1999.90;999.90;;;;;;;4.61;67.73;95830.06;5157659;27;20043;-65
2024/02/08 01:22:05;;;;;;;1999.90;999.90;;;;;;;4.64;67.65;95823.97;5157777;27;20046;-65
2024/02/08 01:24:32;;;;;;;1999.90;999.90;;;;;;;4.65;68.24;95823.94;5157441;27;20043;-66
2024/02/08 01:26:59;;;;;;;1999.90;999.90;;;;;;;4.63;68.10;95817.06;5157501;27;20053;-64
2024/02/08 01:29:26;;;;;;;1999.90;999.90;;;;;;;4.62;67.92;95820.56;5157469;27;20091;-67
2024/02/08 01:31:54;;;;;;;1999.90;999.90;;;;;;;4.62;67.65;95813.66;5157203;27;20138;-67
2024/02/08 01:34:28;;;;;;;1999.90;999.90;;;;;;;4.57;67.78;95818.06;5156723;27;20571;-64
2024/02/08 01:36:55;;;;;;;1999.90;999.90;;;;;;;4.56;68.48;95821.56;5157467;27;20047;-66
2024/02/08 01:39:25;;;;;;;1999.90;999.90;;;;;;;4.53;68.11;95824.22;5157372;27;20137;-63
2024/02/08 01:41:53;;;;;;;1999.90;999.90;;;;;;;4.49;68.54;95820.84;5157391;27;20074;-63
2024/02/08 01:44:21;;;;;;;1999.90;999.90;;;;;;;4.50;69.28;95811.34;5157242;27;20064;-65
2024/02/08 01:46:48;;;;;;;1999.90;999.90;;;;;;;4.47;69.45;95814.03;5157208;27;20126;-67
2024/02/08 01:49:20;;;;;;;1999.90;999.90;;;;;;;4.46;69.78;95813.19;5156999;27;20078;-63
2024/02/08 01:51:59;;;;;;;1999.90;999.90;;;;;;;4.47;69.41;95801.94;5157077;27;20057;-66
2024/02/08 01:54:27;;;;;;;1999.90;999.90;;;;;;;4.41;69.33;95808.13;5157053;27;20047;-66
2024/02/08 01:56:55;;;;;;;1999.90;999.90;;;;;;;4.48;69.18;95798.44;5156959;27;20050;-63
2024/02/08 01:59:22;;;;;;;1999.90;999.90;;;;;;;4.51;69.09;95793.19;5156752;27;20051;-67
2024/02/08 02:01:51;;;;;;;1999.90;999.90;;;;;;;4.58;69.03;95801.66;5156701;27;20054;-67
2024/02/08 02:04:18;;;;;;;1999.90;999.90;;;;;;;4.58;69.00;95798.22;5156837;27;20054;-65
2024/02/08 02:06:45;;;;;;;1999.90;999.90;;;;;;;4.55;69.49;95791.38;5156775;27;20134;-66
2024/02/08 02:09:23;;;;;;;1999.90;999.90;;;;;;;4.53;69.21;95785.38;5156773;27;20043;-65
2024/02/08 02:11:55;;;;;;;1999.90;999.90;;;;;;;4.62;69.23;95789.47;5156733;27;20047;-67
2024/02/08 02:14:29;;;;;;;1999.90;999.90;;;;;;;4.69;69.02;95785.81;5156685;27;20413;-64
2024/02/08 02:17:03;;;;;;;1999.90;999.90;;;;;;;4.71;68.62;95783.19;5156599;27;20058;-64
2024/02/08 02:19:32;;;;;;;1999.90;999.90;;;;;;;4.69;68.94;95785.81;5156623;27;20510;-63
2024/02/08 02:22:00;;;;;;;1999.90;999.90;;;;;;;4.65;67.94;95785.06;5156432;27;20416;-67
2024/02/08 02:24:28;;;;;;;1999.90;999.90;;;;;;;4.65;68.26;95779.88;5156504;27;20476;-64
2024/02/08 02:26:57;;;;;;;1999.90;999.90;;;;;;;4.61;68.06;95773.06;5156366;27;20050;-66
2024/02/08 02:29:26;;;;;;;1999.90;999.90;;;;;;;4.58;68.25;95782.69;5156256;27;20043;-63
2024/02/08 02:31:55;;;;;;;1999.90;999.90;;;;;;;4.54;67.79;95782.75;5156291;27;20050;-64
2024/02/08 02:34:25;;;;;;;1999.90;999.90;;;;;;;4.42;67.65;95778.75;5156133;27;20116;-65
2024/02/08 02:36:54;;;;;;;1999.90;999.90;;;;;;;4.30;67.93;95781.63;5156136;27;20133;-67
2024/02/08 02:39:25;;;;;;;1999.90;999.90;;;;;;;4.23;68.60;95786.13;5156219;27;20053;-64
2024/02/08 02:41:53;;;;;;;1999.90;999.90;;;;;;;4.24;68.65;95789.56;5156218;27;20103;-67
2024/02/08 02:44:21;;;;;;;1999.90;999.90;;;;;;;4.16;68.39;95787.16;5156156;27;20095;-67
2024/02/08 02:46:49;;;;;;;1999.90;999.90;;;;;;;4.16;69.10;95794.94;5156104;27;20480;-65
2024/02/08 02:49:17;;;;;;;1999.90;999.90;;;;;;;4.04;68.94;95799.50;5156109;27;20130;-64
2024/02/08 02:51:48;;;;;;;1999.90;999.90;;;;;;;4.03;69.11;95796.94;5155874;27;20051;-66
2024/02/08 02:54:15;;;;;;;;;;;;;;;3.91;69.27;95796.38;5156331;27;20042;-65
2024/02/08 02:56:47;;;;;;;1999.90;999.90;;;;;;;3.84;68.79;95794.81;5155740;27;19919;-64
2024/02/08 02:59:16;;;;;;;1999.90;999.90;;;;;;;3.74;69.11;95793.31;5155524;27;20504;-64
2024/02/08 03:02:10;;;;;;;1999.90;999.90;;;;;;;3.70;69.59;95796.88;5155663;27;20130;-66
2024/02/08 03:04:37;;;;;;;1999.90;999.90;;;;;;;3.66;69.88;95796.06;5155702;27;20054;-64
2024/02/08 03:07:03;;;;;;;1999.90;999.90;;;;;;;3.65;70.14;95790.03;5155588;27;20494;-64
2024/02/08 03:09:31;;;;;;;1999.90;999.90;;;;;;;3.63;70.75;95793.56;5155648;27;20126;-65
2024/02/08 03:12:00;;;;;;;1999.90;999.90;;;;;;;3.64;70.03;95796.09;5155519;27;20100;-66
2024/02/08 03:14:27;;;;;;;1999.90;999.90;;;;;;;3.59;70.10;95800.56;5155509;27;20488;-65
2024/02/08 03:17:00;;;;;;;1999.90;999.90;;;;;;;3.58;70.41;95798.00;5155337;27;20134;-66
2024/02/08 03:19:28;;;;;;;1999.90;999.90;;;;;;;3.48;69.63;95793.03;5155373;27;20046;-66
2024/02/08 03:21:55;;;;;;;1999.90;999.90;;;;;;;3.36;69.43;95798.44;5155231;27;20043;-65
2024/02/08 03:24:24;;;;;;;1999.90;999.90;;;;;;;3.31;69.49;95795.94;5155325;27;20084;-67
2024/02/08 03:26:50;;;;;;;1999.90;999.90;;;;;;;3.26;70.05;95795.22;5155283;27;20047;-65
2024/02/08 03:29:21;;;;;;;1999.90;999.90;;;;;;;3.18;70.52;95799.69;5155157;27;20047;-66
2024/02/08 03:31:52;;;;;;;1999.90;999.90;;;;;;;3.08;70.88;95797.31;5155284;27;20452;-66
2024/02/08 03:34:19;;;;;;;1999.90;999.90;;;;;;;3.00;71.32;95800.03;5155467;27;20394;-63
2024/02/08 03:36:47;;;;;;;1999.90;999.90;;;;;;;3.03;71.92;95802.56;5154996;27;20100;-65
2024/02/08 03:39:25;;;;;;;1999.90;999.90;;;;;;;3.11;71.87;95801.53;5155010;27;20065;-64
2024/02/08 03:41:59;;;;;;;1999.90;999.90;;;;;;;3.15;72.52;95803.19;5155000;27;20073;-66
2024/02/08 03:44:29;;;;;;;1999.90;999.90;;;;;;;3.17;72.11;95793.66;5155110;27;20070;-64
2024/02/08 03:47:04;;;;;;;1999.90;999.90;;;;;;;3.15;72.16;95795.44;5155104;27;20404;-66
2024/02/08 03:49:35;;;;;;;1999.90;999.90;;;;;;;3.11;72.36;95794.66;5154871;27;20399;-66
2024/02/08 03:52:03;;;;;;;1999.90;999.90;;;;;;;3.03;72.66;95799.97;5154959;27;20050;-64
2024/02/08 03:54:30;;;;;;;1999.90;999.90;;;;;;;3.02;73.35;95800.00;5154866;27;20501;-66
2024/02/08 03:56:59;;;;;;;1999.90;999.90;;;;;;;3.06;73.03;95809.38;5154190;27;20138;-66
2024/02/08 03:59:28;;;;;;;1999.90;999.90;;;;;;;3.06;73.15;95796.47;5154612;27;20051;-67
2024/02/08 04:02:01;;;;;;;1999.90;999.90;;;;;;;3.07;73.36;95802.50;5154883;27;20050;-65
2024/02/08 04:04:34;;;;;;;1999.90;999.90;;;;;;;3.08;73.59;95799.88;5154849;27;20043;-65
2024/02/08 04:07:20;;;;;;;1999.90;999.90;;;;;;;3.08;73.39;95793.84;5154736;27;20086;-64
2024/02/08 04:09:55;;;;;;;1999.90;999.90;;;;;;;3.01;74.98;95799.13;5154678;27;20143;-66
2024/02/08 04:53:39;;;;;;;1999.90;999.90;;;;;;;2.52;73.87;95803.50;5154501;27;20119;-66
2024/02/08 04:56:08;;;;;;;1999.90;999.90;;;;;;;2.49;73.33;95804.41;5154269;27;20082;-65
2024/02/08 04:58:37;;;;;;;1999.90;999.90;;;;;;;2.43;73.67;95807.09;5154062;27;20042;-64
2024/02/08 05:01:05;;;;;;;1999.90;999.90;;;;;;;2.36;74.28;95806.38;5154274;27;20486;-67
2024/02/08 05:03:37;;;;;;;1999.90;999.90;;;;;;;2.34;74.00;95807.25;5154334;27;20053;-65
2024/02/08 05:06:10;;;;;;;1999.90;999.90;;;;;;;2.30;73.83;95805.59;5154266;27;20102;-65
2024/02/08 05:08:39;;;;;;;1999.90;999.90;;;;;;;2.15;74.37;95807.56;5156145;27;20463;-64
2024/02/08 05:11:10;;;;;;;1999.90;999.90;;;;;;;2.10;74.51;95805.06;5157934;27;20042;-67
2024/02/08 05:13:39;;;;;;;;;;;;;;;1.96;75.21;95804.44;5158321;27;20042;-66
2024/02/08 05:16:07;;;;;;;1999.90;999.90;;;;;;;1.86;76.13;95803.72;5158010;27;19923;-62
2024/02/08 05:18:36;;;;;;;1999.90;999.90;;;;;;;1.85;75.99;95814.91;5157951;27;20121;-66
2024/02/08 05:21:06;;;;;;;1999.90;999.90;;;;;;;1.81;76.47;95806.38;5157756;27;20411;-66
2024/02/08 05:23:34;;;;;;;1999.90;999.90;;;;;;;1.78;77.48;95811.59;5157756;27;20089;-64
2024/02/08 05:26:02;;;;;;;1999.90;999.90;;;;;;;1.80;77.35;95804.66;5157637;27;20449;-65
2024/02/08 05:28:30;;;;;;;1999.90;999.90;;;;;;;1.77;78.03;95809.84;5157577;27;20048;-65
2024/02/08 05:30:57;;;;;;;1999.90;999.90;;;;;;;1.74;78.72;95810.75;5157580;27;20137;-64
2024/02/08 05:33:29;;;;;;;1999.90;999.90;;;;;;;1.79;78.15;95815.84;5157395;27;20089;-68
2024/02/08 05:35:58;;;;;;;1999.90;999.90;;;;;;;1.76;77.56;95803.88;5157404;27;20058;-68
2024/02/08 05:38:26;;;;;;;1999.90;999.90;;;;;;;1.76;77.45;95813.31;5157381;27;20057;-64
2024/02/08 05:40:53;;;;;;;1999.90;999.90;;;;;;;1.82;77.82;95817.53;5157120;27;20092;-68
2024/02/08 05:43:30;;;;;;;1999.90;999.90;;;;;;;1.80;77.80;95819.31;5157578;27;20081;-62
2024/02/08 05:45:57;;;;;;;1999.90;999.90;;;;;;;1.82;78.18;95820.13;5157270;27;20400;-65
2024/02/08 05:48:27;;;;;;;1999.90;999.90;;;;;;;1.84;78.33;95824.38;5157225;27;20074;-63
2024/02/08 05:50:56;;;;;;;1999.90;999.90;;;;;;;1.94;77.92;95829.38;5157222;27;20046;-67
2024/02/08 05:53:29;;;;;;;1999.90;999.90;;;;;;;2.03;77.55;95826.69;5157065;27;20054;-65
2024/02/08 05:55:59;;;;;;;1999.90;999.90;;;;;;;2.09;77.31;95838.63;5157061;27;20074;-61
2024/02/08 05:58:27;;;;;;;1999.90;999.90;;;;;;;2.09;77.00;95841.22;5156695;27;20054;-63
2024/02/08 06:01:01;;;;;;;1999.90;999.90;;;;;;;2.16;76.72;95836.81;5156897;27;20081;-65
2024/02/08 06:03:33;;;;;;;1999.90;999.90;;;;;;;2.26;76.14;95844.38;5156841;27;20057;-64
2024/02/08 06:06:07;;;;;;;1999.90;999.90;;;;;;;2.28;77.13;95839.19;5156912;27;20488;-67
2024/02/08 06:08:41;;;;;;;1999.90;999.90;;;;;;;2.41;77.04;95845.00;5156885;27;20085;-65
2024/02/08 06:11:16;;;;;;;1999.90;999.90;;;;;;;2.57;76.63;95840.44;5157011;27;20046;-67
2024/02/08 06:13:50;;;;;;;1999.90;999.90;;;;;;;2.79;76.59;95845.19;5156720;27;20054;-65
2024/02/08 06:16:27;;;;;;;1999.90;999.90;;;;;;;3.17;75.43;95845.38;5156665;27;20049;-64
2024/02/08 06:19:02;;;;;;;1999.90;999.90;;;;;;;3.65;74.19;95841.78;5156396;27;20043;-62
2024/02/08 06:21:40;;;;;;;1999.90;999.90;;;;;;;3.98;71.94;95848.00;5156387;27;20054;-65
2024/02/08 06:24:32;;;;;;;1999.90;999.90;;;;;;;4.28;70.84;95855.94;5156720;27;20043;-64
2024/02/08 06:27:01;;;;;;;1999.90;999.90;;;;;;;4.57;69.74;95869.06;5156336;27;20090;-67
2024/02/08 06:29:38;;;;;;;1999.90;999.90;;;;;;;5.22;68.44;95863.91;5156506;27;20077;-65
2024/02/08 06:32:23;;;;;;;1999.90;999.90;;;;;;;6.79;64.71;95879.16;5156425;27;20567;-66
2024/02/08 06:34:55;;;;;;;1999.90;999.90;;;;;;;8.16;57.06;95895.09;5156355;27;20148;-64
2024/02/08 06:37:30;;;;;;;1999.90;999.90;;;;;;;8.92;54.77;95873.03;5156322;27;20125;-65
2024/02/08 06:39:58;;;;;;;1999.90;999.90;;;;;;;10.00;52.16;95870.94;5156371;27;20411;-65
2024/02/08 06:42:44;;;;;;;1999.90;999.90;;;;;;;11.59;48.72;95870.22;5156047;27;20050;-64
2024/02/08 06:48:32;;;;;;;1999.90;999.90;;;;;;;14.47;40.31;95873.81;5156136;27;20131;-63
2024/02/08 07:37:29;;;;;;;1999.90;999.90;;;;;;;21.98;27.20;95893.88;5155136;27;20087;-66
2024/02/08 07:40:00;;;;;;;1999.90;999.90;;;;;;;21.81;27.03;95898.13;5155095;27;20415;-62
2024/02/08 07:42:32;;;;;;;1999.90;999.90;;;;;;;22.33;27.43;95894.13;5155000;27;20612;-64
2024/02/08 07:45:04;;;;;;;1999.90;999.90;;;;;;;22.33;26.30;95897.66;5155061;27;20053;-64
2024/02/08 07:47:33;;;;;;;1999.90;999.90;;;;;;;22.96;25.77;95897.84;5154883;27;20408;-65
2024/02/08 07:50:04;;;;;;;1999.90;999.90;;;;;;;23.41;25.17;95905.94;5154915;27;20060;-64
2024/02/08 07:52:33;;;;;;;1999.90;999.90;;;;;;;23.51;25.63;95894.34;5154836;27;20122;-64
2024/02/08 07:57:58;;;;;;;1999.90;999.90;;;;;;;22.61;25.96;95895.97;5152504;27;20370;-63
2024/02/08 08:00:41;;;;;;;1999.90;999.90;;;;;;;22.61;27.20;95891.50;5151940;27;20100;-65
2024/02/08 08:03:10;;;;;;;1999.90;999.90;;;;;;;22.54;26.81;95895.69;5152184;27;20079;-64
2024/02/08 08:05:41;;;;;;;1999.90;999.90;;;;;;;22.54;26.79;95893.88;5151984;27;20039;-63
2024/02/08 08:08:15;;;;;;;1999.90;999.90;;;;;;;22.00;26.88;95901.72;5152052;27;20047;-64
2024/02/08 08:10:42;;;;;;;1999.90;999.90;;;;;;;21.62;27.34;95904.31;5151996;27;20047;-65
2024/02/08 08:13:14;;;;;;;1999.90;999.90;;;;;;;21.84;27.32;95901.34;5151914;27;20444;-63
2024/02/08 08:15:49;;;;;;;1999.90;999.90;;;;;;;22.51;26.36;95904.00;5151774;27;20043;-63
2024/02/08 08:18:23;;;;;;;1999.90;999.90;;;;;;;22.63;26.51;95908.16;5151800;27;20426;-65
2024/02/08 08:20:56;;;;;;;1999.90;999.90;;;;;;;22.96;25.50;95907.66;5151949;27;20130;-63
2024/02/08 08:23:26;;;;;;;1999.90;999.90;;;;;;;22.90;25.38;95894.97;5151876;27;20047;-67
2024/02/08 08:26:00;;;;;;;1999.90;999.90;;;;;;;22.61;26.27;95898.66;5151697;27;20043;-63
2024/02/08 08:28:39;;;;;;;1999.90;999.90;;;;;;;22.66;26.32;95896.38;5151742;27;20498;-64
2024/02/08 08:31:34;;;;;;;1999.90;999.90;;;;;;;22.31;26.05;95894.28;5151908;27;20130;-65
2024/02/08 08:34:04;;;;;;;1999.90;999.90;;;;;;;21.52;27.42;95894.50;5151326;27;20039;-63
2024/02/08 08:36:29;;;;;;;;;;;;;;;20.89;28.00;95891.28;5151922;27;20073;-67
2024/02/08 08:39:46;;;;;;;1999.90;999.90;;;;;;;20.53;28.60;95881.19;5151450;27;20360;-65
2024/02/08 08:41:47;;;;;;;1999.90;999.90;;;;;;;19.97;29.28;95878.06;5151346;27;20438;-66
2024/02/08 08:44:18;;;;;;;1999.90;999.90;;;;;;;19.51;30.04;95886.31;5151338;27;20043;-63
2024/02/08 08:46:45;;;;;;;1999.90;999.90;;;;;;;19.14;30.11;95887.63;5151178;27;20450;-66
2024/02/08 08:49:14;;;;;;;1999.90;999.90;;;;;;;18.82;30.79;95883.16;5151249;27;20054;-66
2024/02/08 08:51:58;;;;;;;1999.90;999.90;;;;;;;18.41;31.01;95883.75;5151329;27;20129;-66
2024/02/08 08:54:29;;;;;;;1999.90;999.90;;;;;;;18.08;32.22;95884.59;5151187;27;20051;-65
2024/02/08 08:56:56;;;;;;;;;;;;;;;17.83;32.49;95884.72;5151269;27;20047;-64
2024/02/08 08:59:26;;;;;;;1999.90;999.90;;;;;;;17.68;32.95;95889.41;5151090;27;19961;-68
2024/02/08 09:01:53;;;;;;;1999.90;999.90;;;;;;;17.20;33.86;95885.94;5150876;27;20047;-65
2024/02/08 09:04:32;;;;;;;1999.90;999.90;;;;;;;16.89;35.20;95882.91;5150791;27;20053;-64
2024/02/08 09:07:10;;;;;;;1999.90;999.90;;;;;;;16.72;34.69;95882.38;5150668;27;20480;-65
2024/02/08 09:10:00;;;;;;;1999.90;999.90;;;;;;;16.17;36.03;95886.22;5136886;27;20043;-64
2024/02/08 09:12:36;;;;;;;1999.90;999.90;;;;;;;16.14;36.48;95883.81;5136959;27;20051;-67
2024/02/08 09:17:52;;;;;;;1999.90;999.90;;;;;;;16.45;35.23;95875.50;5134934;27;20458;-68
2024/02/08 09:20:28;;;;;;;1999.90;999.90;;;;;;;16.58;35.41;95874.63;5136912;27;20484;-68
2024/02/08 09:22:57;;;;;;;1999.90;999.90;;;;;;;16.64;35.23;95868.88;5136750;27;20401;-65
2024/02/08 09:25:24;;;;;;;1999.90;999.90;;;;;;;16.64;35.48;95874.16;5136779;27;20047;-66
2024/02/08 09:27:56;;;;;;;1999.90;999.90;;;;;;;16.79;34.95;95875.66;5136976;27;20035;-68
2024/02/08 09:30:39;;;;;;;1999.90;999.90;;;;;;;16.90;34.94;95871.38;5137147;27;20503;-65
2024/02/08 09:33:14;;;;;;;1999.90;999.90;;;;;;;17.11;35.23;95876.06;5136674;27;20107;-64
2024/02/08 09:35:42;;;;;;;1999.90;999.90;;;;;;;17.12;35.21;95870.66;5136851;27;20043;-62
2024/02/08 09:38:18;;;;;;;1999.90;999.90;;;;;;;17.22;34.64;95869.97;5136390;27;20416;-65
2024/02/08 09:40:51;;;;;;;1999.90;999.90;;;;;;;17.26;34.63;95866.13;5136459;27;20047;-66
2024/02/08 09:43:18;;;;;;;1999.90;999.90;;;;;;;17.37;34.71;95868.78;5136386;27;20043;-64
2024/02/08 09:46:01;;;;;;;1999.90;999.90;;;;;;;17.13;34.75;95859.13;5136528;27;20047;-65
2024/02/08 09:48:36;;;;;;;1999.90;999.90;;;;;;;17.26;35.07;95855.56;5136334;27;20077;-64
2024/02/08 09:51:11;;;;;;;1999.90;999.90;;;;;;;17.42;34.64;95849.94;5136302;27;20400;-65
2024/02/08 09:53:51;;;;;;;1999.90;999.90;;;;;;;17.48;33.63;95849.47;5136221;27;20428;-67
2024/02/08 09:56:28;;;;;;;1999.90;999.90;;;;;;;17.47;34.62;95849.59;5135806;27;20086;-65
2024/02/08 09:59:02;;;;;;;1999.90;999.90;;;;;;;17.63;33.93;95846.59;5136195;27;20047;-67
2024/02/08 10:01:35;;;;;;;1999.90;999.90;;;;;;;17.65;34.06;95847.31;5136170;27;20051;-65
2024/02/08 10:04:05;;;;;;;1999.90;999.90;;;;;;;17.76;33.55;95843.84;5136096;27;20055;-64
2024/02/08 10:06:41;;;;;;;1999.90;999.90;;;;;;;17.58;34.51;95835.53;5136229;27;20484;-66
2024/02/08 10:09:34;;;;;;;1999.90;999.90;;;;;;;17.57;32.85;95837.34;5135934;27;20047;-65
2024/02/08 10:11:58;;;;;;;1999.90;999.90;;;;;;;17.51;32.28;95836.00;5135696;27;20070;-64
2024/02/08 10:14:26;;;;;;;1999.90;999.90;;;;;;;17.35;33.48;95836.38;5135738;27;20085;-66
2024/02/08 10:16:58;;;;;;;1999.90;999.90;;;;;;;17.44;33.41;95824.25;5135868;27;20043;-64
2024/02/08 10:19:36;;;;;;;1999.90;999.90;;;;;;;17.51;33.08;95821.94;5134748;27;20045;-63
2024/02/08 10:22:17;;;;;;;1999.90;999.90;;;;;;;17.64;32.25;95813.91;5135648;27;20502;-65
2024/02/08 10:27:27;;;;;;;1999.90;999.90;;;;;;;17.56;31.45;95819.81;5135447;27;20496;-63
2024/02/08 10:30:01;;;;;;;1999.90;999.90;;;;;;;17.70;30.62;95810.78;5135207;27;20092;-67
2024/02/08 10:33:05;;;;;;;1999.90;999.90;;;;;;;17.81;30.00;95808.13;5135261;27;20096;-63
2024/02/08 10:35:39;;;;;;;1999.90;999.90;;;;;;;17.63;30.79;95801.63;5135496;27;20046;-66
2024/02/08 10:38:18;;;;;;;1999.90;999.90;;;;;;;17.87;30.49;95792.72;5135289;27;20051;-63
2024/02/08 10:40:47;;;;;;;1999.90;999.90;;;;;;;17.99;30.69;95790.91;5135128;27;20050;-64
2024/02/08 10:43:17;;;;;;;1999.90;999.90;;;;;;;18.01;30.33;95794.28;5135213;27;20047;-66
2024/02/08 10:45:53;;;;;;;1999.90;999.90;;;;;;;18.15;30.53;95780.81;5135140;27;20043;-65
2024/02/08 10:48:23;;;;;;;1999.90;999.90;;;;;;;18.25;30.56;95780.91;5135032;27;20083;-68
2024/02/08 10:50:51;;;;;;;1999.90;999.90;;;;;;;18.30;30.56;95769.94;5134938;27;20047;-66
2024/02/08 10:53:43;;;;;;;1999.90;999.90;;;;;;;18.37;30.69;95775.56;5135023;27;20070;-64
2024/02/08 10:56:14;;;;;;;1999.90;999.90;;;;;;;18.42;28.65;95768.09;5134566;27;20555;-65
2024/02/08 10:59:09;;;;;;;1999.90;999.90;;;;;;;18.27;27.79;95764.91;5134978;27;20043;-66
2024/02/08 11:01:37;;;;;;;1999.90;999.90;;;;;;;18.34;29.30;95763.44;5134964;27;20054;-67
2024/02/08 11:04:17;;;;;;;1999.90;999.90;;;;;;;18.42;27.90;95763.63;5134755;27;20043;-63
2024/02/08 11:06:54;;;;;;;1999.90;999.90;;;;;;;18.42;28.84;95758.34;5134819;27;20412;-66
2024/02/08 11:09:27;;;;;;;1999.90;999.90;;;;;;;18.53;28.82;95762.75;5134737;27;20096;-63
2024/02/08 11:11:59;;;;;;;1999.90;999.90;;;;;;;18.60;27.78;95752.47;5134703;27;20043;-64
2024/02/08 11:14:29;;;;;;;1999.90;999.90;;;;;;;18.64;26.10;95751.28;5134610;27;20388;-65
2024/02/08 11:17:03;;;;;;;1999.90;999.90;;;;;;;18.48;27.08;95746.41;5134576;27;20130;-65
2024/02/08 11:19:35;;;;;;;1999.90;999.90;;;;;;;18.39;26.33;95739.25;5134546;27;20047;-66
2024/02/08 11:22:34;;;;;;;1999.90;999.90;;;;;;;18.47;26.92;95743.88;5134407;27;20474;-66
2024/02/08 11:25:18;;;;;;;1999.90;999.90;;;;;;;18.39;26.06;95740.06;5134614;27;20104;-68
2024/02/08 11:27:48;;;;;;;1999.90;999.90;;;;;;;18.39;25.96;95741.88;5134411;27;20543;-69
2024/02/08 11:30:19;;;;;;;1999.90;999.90;;;;;;;18.26;25.91;95726.16;5134359;27;20047;-64
2024/02/08 11:33:01;;;;;;;1999.90;999.90;;;;;;;18.18;26.27;95719.69;5134206;27;20057;-65
2024/02/08 11:35:31;;;;;;;1999.90;999.90;;;;;;;18.19;26.95;95724.00;5134150;27;20043;-63
2024/02/08 11:38:12;;;;;;;1999.90;999.90;;;;;;;18.39;26.62;95726.00;5134226;27;20043;-67
2024/02/08 11:40:41;;;;;;;1999.90;999.90;;;;;;;18.41;26.38;95724.91;5134149;27;20043;-67
2024/02/08 11:43:19;;;;;;;1999.90;999.90;;;;;;;18.46;25.77;95727.19;5134155;27;20510;-65
2024/02/08 11:45:52;;;;;;;1999.90;999.90;;;;;;;18.50;26.30;95730.38;5134107;27;20126;-64
2024/02/08 11:48:26;;;;;;;1999.90;999.90;;;;;;;18.40;26.93;95720.59;5134018;27;20050;-68
2024/02/08 11:50:58;;;;;;;1999.90;999.90;;;;;;;18.42;27.87;95721.28;5134200;27;20043;-66
2024/02/08 11:53:33;;;;;;;1999.90;999.90;;;;;;;18.48;27.51;95708.50;5133976;27;20476;-66
2024/02/08 11:56:08;;;;;;;1999.90;999.90;;;;;;;18.51;26.12;95711.72;5133728;28;20488;-65
2024/02/08 11:58:41;;;;;;;1999.90;999.90;;;;;;;18.42;26.68;95708.03;5133908;27;20058;-67
2024/02/08 12:01:09;;;;;;;1999.90;999.90;;;;;;;18.38;28.90;95696.03;5133925;28;20411;-64
2024/02/08 12:03:41;;;;;;;1999.90;999.90;;;;;;;18.41;29.25;95700.22;5133969;27;20488;-66
2024/02/08 12:06:22;;;;;;;1999.90;999.90;;;;;;;18.42;28.97;95692.16;5134093;27;20047;-68
2024/02/08 12:08:57;;;;;;;1999.90;999.90;;;;;;;18.35;29.39;95698.94;5133911;27;20495;-67
2024/02/08 12:11:24;;;;;;;1999.90;999.90;;;;;;;18.32;29.08;95704.47;5133869;27;20122;-64
2024/02/08 12:13:56;;;;;;;1999.90;999.90;;;;;;;18.34;28.82;95699.91;5134002;27;20047;-62
2024/02/08 12:16:25;;;;;;;1999.90;999.90;;;;;;;18.38;28.97;95697.84;5133870;28;20047;-66
2024/02/08 12:18:56;;;;;;;1999.90;999.90;;;;;;;18.31;29.19;95690.41;5133858;27;20055;-65
2024/02/08 12:21:25;;;;;;;1999.90;999.90;;;;;;;18.32;29.16;95699.19;5133956;28;20472;-65
2024/02/08 12:23:53;;;;;;;1999.90;999.90;;;;;;;18.40;28.57;95688.81;5133716;28;20120;-67
2024/02/08 12:26:23;;;;;;;1999.90;999.90;;;;;;;18.23;28.86;95690.22;5133749;28;20055;-65
2024/02/08 12:28:56;;;;;;;1999.90;999.90;;;;;;;18.29;29.64;95680.91;5133800;28;20139;-63
2024/02/08 12:31:29;;;;;;;1999.90;999.90;;;;;;;18.06;29.59;95679.16;5133613;28;20086;-65
2024/02/08 12:34:00;;;;;;;1999.90;999.90;;;;;;;18.09;29.20;95672.78;5133705;28;20111;-68
2024/02/08 12:37:08;;;;;;;;;;;;;;;18.06;28.88;95673.88;5134237;28;20092;-69
2024/02/08 12:39:41;;;;;;;1999.90;999.90;;;;;;;18.00;29.44;95677.03;5133703;28;20398;-67
2024/02/08 12:42:13;;;;;;;1999.90;999.90;;;;;;;17.95;29.10;95660.72;5133829;27;20043;-63
2024/02/08 12:44:41;;;;;;;1999.90;999.90;;;;;;;17.98;29.47;95657.81;5137256;27;20450;-65
2024/02/08 12:47:09;;;;;;;1999.90;999.90;;;;;;;17.92;29.49;95664.44;5137531;27;20049;-68
2024/02/08 12:49:37;;;;;;;1999.90;999.90;;;;;;;17.94;29.08;95669.59;5137428;27;20408;-65
2024/02/08 12:52:09;;;;;;;1999.90;999.90;;;;;;;17.98;28.96;95659.59;5137442;27;20127;-63
2024/02/08 12:54:38;;;;;;;1999.90;999.90;;;;;;;17.96;28.77;95665.03;5137341;27;20151;-66
2024/02/08 12:57:10;;;;;;;1999.90;999.90;;;;;;;18.01;28.34;95657.56;5137032;27;20051;-66
2024/02/08 12:59:38;;;;;;;1999.90;999.90;;;;;;;17.91;28.18;95660.09;5137298;27;20069;-63